Time;durP1;ratioP1;P1;durP2;ratioP2;P2;SDS_P1;SDS_P2;PMS_P1;PMS_P2;Temp;Humidity;BMP_temperature;BMP_pressure;BME280_temperature;BME280_humidity;BME280_pressure;Samples;Min_cycle;Max_cycle;Signal;HPM_P1;HPM_P2
2023/08/20 18:10:25;;;;;;;;;;;26.80;73.10;;;;;;5092658;27;19923;-94
2023/08/20 18:12:51;;;;;;;;;;;26.40;73.90;;;;;;5086318;28;19999;-92
2023/08/20 18:15:16;;;;;;;;;;;26.40;74.70;;;;;;5082854;28;19912;-93
2023/08/20 18:17:42;;;;;;;;;;;26.40;76.00;;;;;;5088304;28;19913;-95
2023/08/20 18:20:14;;;;;;;;;;;26.40;75.90;;;;;;5108512;28;19908;-93
2023/08/20 18:22:40;;;;;;;;;;;26.40;76.30;;;;;;5082087;28;19921;-90
2023/08/20 18:25:05;;;;;;;;;;;26.50;76.60;;;;;;5097940;28;19912;-89
2023/08/20 18:27:31;;;;;;;;;;;26.50;76.90;;;;;;5090748;28;19908;-92
2023/08/20 18:29:57;;;;;;;;;;;26.50;77.10;;;;;;5088598;28;19965;-95
2023/08/20 18:32:22;;;;;;;;;;;26.50;77.40;;;;;;5089162;28;19912;-94
2023/08/20 18:34:48;;;;;;;;;;;26.50;77.50;;;;;;5090328;28;19908;-93
2023/08/20 18:37:13;;;;;;;;;;;26.50;77.70;;;;;;5090137;28;20311;-94
2023/08/20 18:39:39;;;;;;;;;;;26.50;77.80;;;;;;5087394;28;19913;-93
2023/08/20 18:42:04;;;;;;;;;;;26.50;78.00;;;;;;5090128;28;20352;-92
2023/08/20 18:44:30;;;;;;;;;;;26.50;78.10;;;;;;5088442;28;19952;-93
2023/08/20 18:46:55;;;;;;;;;;;26.50;78.30;;;;;;5089962;28;19912;-94
2023/08/20 18:49:21;;;;;;;;;;;26.50;78.50;;;;;;5089544;28;19912;-93
2023/08/20 18:51:47;;;;;;;;;;;26.50;78.60;;;;;;5089545;28;19919;-91
2023/08/20 18:54:12;;;;;;;;;;;26.50;78.80;;;;;;5077853;28;20408;-94
2023/08/20 18:56:38;;;;;;;;;;;26.50;78.90;;;;;;5084189;28;19913;-94
2023/08/20 18:59:03;;;;;;;;;;;26.40;79.00;;;;;;5087861;28;21291;-90
2023/08/20 19:01:29;;;;;;;;;;;26.40;79.10;;;;;;5087222;28;20422;-90
2023/08/20 19:03:54;;;;;;;;;;;26.40;79.40;;;;;;5083754;28;20326;-90
2023/08/20 19:06:20;;;;;;;;;;;26.30;79.50;;;;;;5091797;28;20333;-91
2023/08/20 19:08:46;;;;;;;;;;;26.30;79.60;;;;;;5092115;28;19924;-91
2023/08/20 19:11:11;;;;;;;;;;;26.20;79.80;;;;;;5112267;28;19915;-90
2023/08/20 19:13:38;;;;;;;;;;;26.20;80.00;;;;;;5106330;28;19912;-91
2023/08/20 19:16:03;;;;;;;;;;;26.20;80.20;;;;;;5105982;28;19917;-90
2023/08/20 19:18:29;;;;;;;;;;;26.10;80.20;;;;;;5089783;28;19919;-91
2023/08/20 19:20:55;;;;;;;;;;;26.10;80.40;;;;;;5094553;28;19999;-90
2023/08/20 19:23:21;;;;;;;;;;;26.10;80.70;;;;;;5090522;28;20010;-91
2023/08/20 19:25:47;;;;;;;;;;;26.00;80.80;;;;;;5107013;28;19907;-91
2023/08/20 19:28:13;;;;;;;;;;;26.00;81.00;;;;;;5082015;28;20489;-91
2023/08/20 19:30:43;;;;;;;;;;;25.90;81.00;;;;;;5095163;28;19991;-90
2023/08/20 19:33:08;;;;;;;;;;;25.90;81.20;;;;;;5087381;28;20441;-91
2023/08/20 19:35:34;;;;;;;;;;;25.80;81.40;;;;;;5096946;28;19909;-92
2023/08/20 19:37:59;;;;;;;;;;;25.80;81.60;;;;;;5081853;28;19919;-92
2023/08/20 19:40:25;;;;;;;;;;;25.80;81.80;;;;;;5078205;28;20348;-91
2023/08/20 19:42:50;;;;;;;;;;;25.70;81.80;;;;;;5097084;28;19912;-93
2023/08/20 19:45:16;;;;;;;;;;;25.70;82.00;;;;;;5095717;28;19995;-93
2023/08/20 19:47:42;;;;;;;;;;;25.60;82.00;;;;;;5103294;28;19916;-91
2023/08/20 19:50:08;;;;;;;;;;;25.60;82.20;;;;;;5081917;28;19923;-91
2023/08/20 19:52:33;;;;;;;;;;;25.50;82.40;;;;;;5093126;28;20357;-91
2023/08/20 19:54:59;;;;;;;;;;;25.50;82.60;;;;;;5091931;28;19909;-92
2023/08/20 19:57:24;;;;;;;;;;;25.40;82.70;;;;;;5094307;28;19916;-93
2023/08/20 19:59:50;;;;;;;;;;;25.40;83.00;;;;;;5096714;28;20018;-93
2023/08/20 20:02:15;;;;;;;;;;;25.30;83.10;;;;;;5091551;28;19908;-92
2023/08/20 20:06:40;;;;;;;;;;;25.30;82.80;;;;;;5112968;27;19912;-90
2023/08/20 20:09:06;;;;;;;;;;;25.20;83.50;;;;;;5110741;28;20340;-90
2023/08/20 20:11:31;;;;;;;;;;;25.20;83.70;;;;;;5110752;28;19935;-89
